Time;durP1;ratioP1;P1;durP2;ratioP2;P2;SDS_P1;SDS_P2;PMS_P1;PMS_P2;Temp;Humidity;BMP_temperature;BMP_pressure;BME280_temperature;BME280_humidity;BME280_pressure;Samples;Min_cycle;Max_cycle;Signal;HPM_P1;HPM_P2
2022/09/20 05:02:41;;;;;;;6.28;0.50;;;16.20;65.70;;;;;;4756807;30;20130;-75
2022/09/20 05:05:35;;;;;;;3.85;0.70;;;16.20;65.90;;;;;;4739393;30;20052;-76
2022/09/20 05:08:39;;;;;;;5.63;0.85;;;16.30;65.80;;;;;;4739139;30;20056;-76
2022/09/20 05:11:11;;;;;;;5.18;0.40;;;16.30;65.70;;;;;;4737746;30;20056;-75
2022/09/20 05:13:45;;;;;;;9.23;0.90;;;16.30;65.60;;;;;;4738089;30;20468;-78
2022/09/20 05:16:22;;;;;;;6.47;0.85;;;16.30;65.60;;;;;;4722360;30;20087;-78
2022/09/20 05:19:20;;;;;;;3.15;0.70;;;16.30;65.50;;;;;;4752440;30;20056;-73
2022/09/20 05:21:55;;;;;;;6.18;0.93;;;16.30;65.50;;;;;;4734360;30;20345;-77
2022/09/20 05:24:41;;;;;;;2.42;0.80;;;16.30;65.50;;;;;;4753930;30;20063;-76
2022/09/20 05:27:35;;;;;;;3.25;0.90;;;16.30;65.50;;;;;;4750915;30;20063;-75
2022/09/20 05:30:22;;;;;;;5.85;0.57;;;16.30;65.50;;;;;;4739041;30;20063;-75
2022/09/20 05:33:12;;;;;;;3.92;0.90;;;16.30;65.50;;;;;;4753780;30;20060;-77
2022/09/20 05:36:09;;;;;;;6.38;0.80;;;16.30;65.70;;;;;;4758802;30;20051;-76
2022/09/20 05:38:51;;;;;;;3.85;0.88;;;16.20;65.90;;;;;;4736949;30;20067;-77
2022/09/20 05:41:52;;;;;;;4.88;0.75;;;16.30;66.00;;;;;;4736931;30;20064;-75
2022/09/20 05:44:43;;;;;;;3.85;0.60;;;16.30;66.00;;;;;;4736196;30;20064;-75
2022/09/20 05:47:43;;;;;;;5.03;0.60;;;16.30;66.00;;;;;;4746849;30;20056;-79
2022/09/20 05:50:36;;;;;;;5.07;1.05;;;16.20;66.00;;;;;;4736778;30;20357;-77
2022/09/20 05:53:05;;;;;;;6.40;0.80;;;16.30;66.10;;;;;;4750365;30;20196;-77
2022/09/20 05:55:43;;;;;;;7.30;0.95;;;16.30;66.40;;;;;;4750192;30;20138;-75
2022/09/20 05:58:32;;;;;;;6.88;0.60;;;16.20;66.30;;;;;;4736522;30;20048;-77
2022/09/20 06:01:12;;;;;;;3.63;0.60;;;16.20;66.30;;;;;;4744874;30;20115;-74
2022/09/20 06:04:10;;;;;;;2.97;0.98;;;16.20;66.40;;;;;;4754727;30;20056;-78
2022/09/20 06:06:49;;;;;;;7.22;0.75;;;16.20;66.50;;;;;;4753153;30;20074;-80
2022/09/20 06:09:27;;;;;;;11.55;1.35;;;16.20;66.60;;;;;;4752755;30;20469;-79
2022/09/20 06:11:55;;;;;;;7.50;0.75;;;16.10;66.70;;;;;;4753801;30;20083;-77
2022/09/20 06:14:38;;;;;;;6.30;0.93;;;16.10;66.80;;;;;;4754778;30;20056;-77
2022/09/20 06:17:33;;;;;;;3.45;0.70;;;16.10;66.90;;;;;;4775789;30;20051;-79
2022/09/20 06:20:39;;;;;;;6.88;0.82;;;16.20;66.90;;;;;;4779678;30;20040;-76
2022/09/20 06:23:05;;;;;;;4.93;0.90;;;16.20;66.80;;;;;;4759736;30;20060;-77
2022/09/20 06:25:56;;;;;;;2.20;0.52;;;16.20;66.80;;;;;;4774596;30;20059;-77
2022/09/20 06:28:28;;;;;;;3.90;0.70;;;16.20;66.70;;;;;;4774601;30;20078;-76
2022/09/20 06:30:56;;;;;;;5.32;0.57;;;16.20;66.70;;;;;;4775184;30;20059;-79
2022/09/20 06:33:27;;;;;;;5.20;0.88;;;16.30;66.70;;;;;;4757629;30;20110;-78
2022/09/20 06:35:56;;;;;;;4.63;0.70;;;16.30;66.50;;;;;;4757472;30;20063;-76
2022/09/20 06:41:28;;;;;;;4.18;0.65;;;16.30;65.90;;;;;;4760193;30;20051;-77
2022/09/20 06:43:59;;;;;;;5.03;0.47;;;16.30;65.90;;;;;;4775012;30;20097;-78
2022/09/20 06:46:29;;;;;;;13.73;1.13;;;16.20;66.50;;;;;;4775182;30;20055;-74
2022/09/20 06:48:56;;;;;;;8.20;1.27;;;16.20;66.10;;;;;;4782460;30;20087;-77
2022/09/20 06:51:24;;;;;;;4.93;0.73;;;16.20;66.20;;;;;;4788502;30;20047;-80
2022/09/20 06:53:51;;;;;;;5.35;0.80;;;16.30;66.40;;;;;;4759797;30;20146;-79
2022/09/20 06:56:25;;;;;;;4.65;0.63;;;16.30;66.40;;;;;;4774581;30;20112;-78
2022/09/20 06:58:51;;;;;;;3.15;0.60;;;16.30;66.40;;;;;;4774917;30;20478;-78
2022/09/20 07:01:19;;;;;;;3.08;0.85;;;16.30;66.00;;;;;;4772406;30;20055;-76
2022/09/20 07:03:46;;;;;;;7.28;0.60;;;16.30;65.70;;;;;;4756972;30;20399;-79
2022/09/20 07:06:16;;;;;;;5.72;0.95;;;16.30;65.80;;;;;;4771010;30;20126;-76
2022/09/20 07:08:42;;;;;;;5.45;1.05;;;16.30;65.90;;;;;;4761185;30;20048;-75
2022/09/20 07:11:15;;;;;;;4.53;1.10;;;16.30;65.90;;;;;;4765384;30;20494;-76
2022/09/20 07:13:44;;;;;;;2.72;0.60;;;16.30;65.90;;;;;;4773181;30;20064;-76
2022/09/20 07:16:14;;;;;;;4.13;0.95;;;16.30;66.00;;;;;;4774241;30;20068;-75
2022/09/20 07:18:40;;;;;;;4.55;0.60;;;16.30;65.90;;;;;;4773692;30;20389;-75
2022/09/20 07:21:13;;;;;;;7.55;1.15;;;16.40;66.10;;;;;;4774602;30;20153;-75
2022/09/20 07:23:39;;;;;;;8.07;0.98;;;16.40;66.10;;;;;;4774406;30;20040;-77
2022/09/20 07:26:06;;;;;;;8.55;1.38;;;16.40;66.10;;;;;;4762820;30;20048;-76
2022/09/20 07:28:33;;;;;;;6.72;1.02;;;16.40;66.10;;;;;;4774671;30;20056;-75
2022/09/20 07:30:59;;;;;;;7.03;0.98;;;16.40;66.30;;;;;;4773507;30;20063;-76
2022/09/20 07:33:24;;;;;;;4.15;1.08;;;16.50;66.40;;;;;;4774303;30;20056;-75
2022/09/20 07:35:53;;;;;;;5.22;0.90;;;16.40;66.30;;;;;;4761297;30;20064;-77
2022/09/20 07:38:20;;;;;;;8.48;0.80;;;16.50;66.30;;;;;;4756427;30;20487;-77
2022/09/20 07:40:56;;;;;;;5.40;0.60;;;16.50;66.00;;;;;;4761365;30;20055;-76
2022/09/20 07:43:23;;;;;;;4.15;0.70;;;16.50;65.90;;;;;;4774339;30;20062;-76
2022/09/20 07:45:52;;;;;;;4.43;0.75;;;16.50;65.80;;;;;;4773254;30;20105;-78
2022/09/20 07:48:18;;;;;;;4.55;0.77;;;16.60;65.80;;;;;;4773755;30;20118;-75
2022/09/20 07:50:57;;;;;;;6.88;0.77;;;16.60;65.80;;;;;;4769914;30;20123;-77
2022/09/20 07:53:25;;;;;;;9.68;0.80;;;16.60;65.80;;;;;;4756268;30;20058;-78
2022/09/20 07:55:58;;;;;;;15.10;1.25;;;16.60;65.10;;;;;;4770555;30;20083;-80
2022/09/20 07:58:23;;;;;;;7.05;0.70;;;16.60;64.80;;;;;;4769775;30;20060;-76
2022/09/20 08:00:57;;;;;;;3.30;0.80;;;16.60;64.90;;;;;;4770911;30;20127;-77
2022/09/20 08:03:23;;;;;;;3.13;0.50;;;16.70;65.50;;;;;;4754415;30;20364;-77
2022/09/20 08:05:49;;;;;;;5.35;0.52;;;16.70;65.70;;;;;;4755189;30;20052;-78
2022/09/20 08:08:18;;;;;;;4.85;0.73;;;16.70;65.50;;;;;;4756149;30;20048;-73
2022/09/20 08:10:45;;;;;;;6.93;0.50;;;16.80;65.20;;;;;;4756067;30;20063;-78
2022/09/20 08:13:12;;;;;;;3.55;0.40;;;17.00;63.80;;;;;;4741707;30;20056;-74
2022/09/20 08:15:38;;;;;;;4.75;0.90;;;17.00;64.20;;;;;;4737999;30;20052;-78
2022/09/20 08:18:07;;;;;;;2.95;0.63;;;17.00;63.90;;;;;;4738014;30;20057;-77
2022/09/20 08:20:36;;;;;;;2.78;0.70;;;17.00;64.00;;;;;;4738188;30;20052;-74
2022/09/20 08:23:02;;;;;;;5.40;0.70;;;17.00;63.40;;;;;;4750714;30;20066;-75
2022/09/20 08:25:28;;;;;;;4.65;0.55;;;16.90;63.60;;;;;;4755151;30;20068;-74
2022/09/20 08:27:54;;;;;;;6.60;0.70;;;16.90;64.50;;;;;;4756026;30;20056;-74
2022/09/20 08:30:20;;;;;;;5.60;0.50;;;16.90;64.10;;;;;;4755695;30;20056;-74
2022/09/20 08:32:46;;;;;;;2.85;0.40;;;16.90;64.30;;;;;;4744557;30;20048;-74
2022/09/20 08:35:13;;;;;;;3.53;0.73;;;16.90;64.50;;;;;;4738652;30;20061;-76
2022/09/20 08:37:40;;;;;;;3.17;0.55;;;16.90;64.60;;;;;;4737498;30;20330;-74
2022/09/20 08:40:06;;;;;;;5.97;1.13;;;16.90;64.70;;;;;;4751877;30;20071;-75
2022/09/20 08:42:36;;;;;;;3.38;0.57;;;16.90;64.80;;;;;;4746702;30;20048;-74
2022/09/20 08:45:05;;;;;;;3.10;0.60;;;16.90;64.90;;;;;;4755828;30;20059;-76
2022/09/20 08:47:35;;;;;;;3.42;0.77;;;16.90;65.00;;;;;;4755725;30;20095;-75
2022/09/20 08:50:04;;;;;;;2.60;0.85;;;16.90;65.10;;;;;;4755348;30;20095;-74
2022/09/20 08:52:35;;;;;;;3.03;0.40;;;16.90;65.20;;;;;;4745912;30;20590;-74
2022/09/20 08:55:01;;;;;;;3.10;0.50;;;16.90;65.30;;;;;;4737557;30;20063;-74
2022/09/20 08:57:31;;;;;;;3.60;0.60;;;16.90;65.30;;;;;;4737782;30;20060;-74
2022/09/20 09:00:01;;;;;;;2.13;0.60;;;17.00;65.40;;;;;;4751705;30;20131;-73
2022/09/20 09:02:30;;;;;;;3.42;0.52;;;17.00;65.50;;;;;;4744750;30;20048;-74
2022/09/20 09:04:56;;;;;;;2.00;0.45;;;17.00;65.60;;;;;;4739568;30;20067;-75
2022/09/20 09:07:23;;;;;;;2.47;0.57;;;17.00;65.70;;;;;;4754763;30;20051;-75
2022/09/20 09:09:52;;;;;;;1.55;0.40;;;17.00;65.80;;;;;;4755422;30;20131;-74
2022/09/20 09:12:21;;;;;;;2.70;0.30;;;17.00;65.90;;;;;;4748326;30;20539;-75
2022/09/20 09:14:48;;;;;;;2.05;0.40;;;17.00;66.00;;;;;;4737393;30;20053;-74
2022/09/20 09:17:32;;;;;;;1.98;0.55;;;17.00;66.00;;;;;;4736493;30;20480;-74
2022/09/20 09:19:58;;;;;;;;;;;17.00;66.30;;;;;;4737488;30;20064;-75
2022/09/20 09:22:35;;;;;;;1.75;0.38;;;17.00;66.30;;;;;;4743728;30;19937;-74
2022/09/20 09:25:13;;;;;;;2.15;0.28;;;17.00;66.30;;;;;;4754626;30;20122;-76
2022/09/20 09:27:52;;;;;;;5.05;0.88;;;17.10;66.30;;;;;;4754431;30;20052;-76
2022/09/20 09:30:38;;;;;;;10.00;1.63;;;17.10;66.10;;;;;;4749722;30;20052;-78
2022/09/20 09:33:25;;;;;;;9.63;1.05;;;17.10;65.70;;;;;;4751410;30;20128;-77
2022/09/20 09:36:25;;;;;;;3.22;0.93;;;17.10;65.20;;;;;;4738343;30;20071;-77
2022/09/20 09:39:15;;;;;;;5.70;0.63;;;17.10;65.30;;;;;;4753812;30;20417;-73
2022/09/20 09:41:42;;;;;;;4.03;0.52;;;17.10;65.40;;;;;;4753806;30;20067;-77
2022/09/20 09:44:24;;;;;;;5.25;0.73;;;17.10;66.00;;;;;;4754685;30;20048;-75
2022/09/20 09:46:52;;;;;;;8.82;2.00;;;17.20;66.70;;;;;;4754316;30;20056;-80
2022/09/20 09:49:34;;;;;;;5.43;0.73;;;17.20;66.20;;;;;;4753975;30;20056;-72
2022/09/20 09:52:23;;;;;;;9.15;1.35;;;17.20;66.80;;;;;;4750925;30;20060;-73
2022/09/20 09:54:59;;;;;;;27.02;2.95;;;17.20;67.10;;;;;;4737120;30;20056;-78
2022/09/20 09:58:00;;;;;;;8.75;1.08;;;17.20;66.80;;;;;;4750306;30;20052;-76
2022/09/20 10:00:27;;;;;;;8.73;1.95;;;17.20;66.40;;;;;;4736309;30;20134;-76
2022/09/20 10:02:55;;;;;;;12.73;1.83;;;17.20;66.60;;;;;;4737918;30;20134;-77
2022/09/20 10:05:47;;;;;;;6.20;1.05;;;17.20;66.60;;;;;;4736565;30;20057;-73
2022/09/20 10:08:28;;;;;;;7.90;0.98;;;17.20;66.90;;;;;;4731362;30;20053;-72
2022/09/20 10:11:23;;;;;;;8.75;2.50;;;17.30;67.40;;;;;;4745407;30;20055;-73
2022/09/20 10:13:55;;;;;;;12.88;2.03;;;17.30;68.00;;;;;;4742801;30;20049;-78
2022/09/20 10:16:33;;;;;;;11.15;1.80;;;17.30;68.10;;;;;;4736391;30;20052;-75
2022/09/20 10:19:31;;;;;;;9.13;1.13;;;17.30;67.00;;;;;;4737032;30;20372;-73
2022/09/20 10:22:18;;;;;;;13.70;2.00;;;17.40;65.80;;;;;;4756096;30;20393;-73
2022/09/20 10:25:19;;;;;;;6.32;1.10;;;17.30;65.30;;;;;;4753789;30;20084;-74
2022/09/20 11:05:43;;;;;;;8.00;0.82;;;17.30;66.10;;;;;;5435580;24;20050;-77
2022/09/20 11:08:17;;;;;;;7.20;0.98;;;17.40;65.60;;;;;;4809950;29;20151;-75
2022/09/20 11:10:47;;;;;;;6.20;0.82;;;17.30;63.20;;;;;;4810606;29;20123;-77
2022/09/20 11:13:48;;;;;;;3.60;0.75;;;17.30;62.70;;;;;;4795090;29;20482;-78
2022/09/20 11:16:22;;;;;;;6.47;0.50;;;17.30;63.30;;;;;;4782637;29;20145;-79
2022/09/20 11:18:51;;;;;;;4.40;0.55;;;17.30;63.70;;;;;;4810347;29;20050;-78
2022/09/20 11:21:33;;;;;;;3.63;0.45;;;17.30;63.80;;;;;;4794459;29;20070;-79
2022/09/20 11:23:59;;;;;;;4.97;0.57;;;17.30;64.30;;;;;;4794541;29;20133;-79
2022/09/20 11:26:48;;;;;;;6.13;0.77;;;17.40;64.60;;;;;;4810184;29;20208;-79
2022/09/20 11:29:31;;;;;;;5.07;0.60;;;17.40;64.70;;;;;;4794344;29;20058;-81
2022/09/20 11:32:18;;;;;;;4.47;0.90;;;17.40;64.80;;;;;;4794965;29;20051;-79
2022/09/20 11:35:03;;;;;;;4.68;0.80;;;17.40;65.00;;;;;;4809254;29;20135;-78
2022/09/20 11:37:38;;;;;;;6.65;0.50;;;17.40;65.20;;;;;;4809279;29;20120;-79
2022/09/20 11:40:25;;;;;;;3.75;0.65;;;17.40;65.30;;;;;;4795080;29;20066;-79
2022/09/20 11:42:52;;;;;;;4.47;0.55;;;17.40;65.30;;;;;;4793933;29;20084;-82
2022/09/20 11:45:19;;;;;;;4.75;1.00;;;17.40;65.50;;;;;;4794242;29;20141;-77
2022/09/20 11:47:53;;;;;;;4.20;0.47;;;17.40;65.50;;;;;;4795040;29;20146;-82
2022/09/20 11:50:37;;;;;;;5.00;0.38;;;17.40;65.60;;;;;;4794681;29;20096;-80
2022/09/20 11:53:18;;;;;;;6.05;0.60;;;17.40;66.30;;;;;;4779067;29;20467;-80
2022/09/20 11:56:04;;;;;;;3.80;0.75;;;17.40;65.80;;;;;;4794541;29;20059;-80
2022/09/20 11:58:30;;;;;;;3.58;0.45;;;17.40;65.90;;;;;;4794757;29;20046;-80
2022/09/20 12:00:58;;;;;;;2.13;0.50;;;17.40;65.90;;;;;;4794182;29;20379;-79
2022/09/20 12:03:36;;;;;;;6.50;0.85;;;17.40;66.00;;;;;;4778973;29;20108;-81
2022/09/20 12:06:08;;;;;;;5.15;0.63;;;17.40;66.00;;;;;;4809376;29;20062;-79
2022/09/20 12:08:40;;;;;;;4.85;0.68;;;17.50;66.80;;;;;;4809991;29;20058;-80
2022/09/20 12:11:25;;;;;;;3.22;0.30;;;17.50;66.20;;;;;;4794578;29;20375;-80
2022/09/20 12:14:03;;;;;;;2.22;0.38;;;17.50;66.20;;;;;;4793164;29;20437;-79
2022/09/20 12:16:44;;;;;;;6.05;0.70;;;17.50;66.30;;;;;;4793518;29;20146;-77
2022/09/20 12:19:35;;;;;;;3.67;0.50;;;17.50;66.30;;;;;;4808115;29;20062;-78
2022/09/20 12:22:02;;;;;;;5.07;0.75;;;17.50;66.10;;;;;;4807757;29;20130;-77
2022/09/20 12:24:36;;;;;;;4.53;0.65;;;17.50;66.10;;;;;;4791187;29;20429;-76
2022/09/20 12:27:29;;;;;;;7.97;0.70;;;17.50;65.60;;;;;;4775851;30;20056;-79
2022/09/20 12:30:23;;;;;;;5.53;0.57;;;17.50;65.90;;;;;;4805499;29;20200;-78
2022/09/20 12:32:51;;;;;;;4.72;0.80;;;17.50;66.00;;;;;;4794928;29;20039;-76
2022/09/20 12:35:37;;;;;;;4.40;0.60;;;17.50;66.20;;;;;;4808188;29;20131;-76
2022/09/20 12:38:32;;;;;;;5.85;0.60;;;17.50;66.10;;;;;;4809171;29;20141;-77
2022/09/20 12:41:13;;;;;;;12.82;1.67;;;17.50;66.00;;;;;;4808253;29;20050;-74
2022/09/20 12:43:56;;;;;;;9.77;0.98;;;17.50;65.70;;;;;;4798637;29;20410;-74
2022/09/20 12:46:30;;;;;;;11.30;1.05;;;17.50;66.00;;;;;;4791328;30;20066;-73
2022/09/20 12:52:49;;;;;;;6.88;0.60;;;17.50;66.00;;;;;;4802294;29;20066;-73
2022/09/20 12:55:42;;;;;;;6.18;1.00;;;17.60;65.80;;;;;;4808549;29;20395;-73
2022/09/20 12:58:13;;;;;;;5.30;0.50;;;17.50;65.70;;;;;;4808714;29;20429;-74
2022/09/20 13:00:49;;;;;;;5.00;0.77;;;17.60;65.70;;;;;;4809114;29;20438;-75
2022/09/20 13:03:21;;;;;;;4.05;0.40;;;17.60;65.80;;;;;;4809213;29;20458;-74
2022/09/20 13:06:11;;;;;;;5.05;0.43;;;17.60;65.70;;;;;;4811943;29;20073;-75
2022/09/20 13:09:07;;;;;;;3.42;0.40;;;17.60;65.30;;;;;;4820149;29;20054;-76
2022/09/20 13:11:51;;;;;;;6.03;0.95;;;17.60;64.60;;;;;;4826204;29;20135;-74
2022/09/20 13:14:30;;;;;;;5.93;0.70;;;17.60;64.90;;;;;;4810226;29;20462;-78
2022/09/20 13:17:23;;;;;;;3.97;0.50;;;17.60;65.00;;;;;;4808732;29;20051;-75
2022/09/20 13:19:50;;;;;;;4.10;0.65;;;17.60;64.60;;;;;;4821837;29;20082;-76
2022/09/20 13:22:35;;;;;;;5.03;0.68;;;17.60;64.70;;;;;;4826094;29;20050;-75
2022/09/20 13:25:04;;;;;;;7.75;1.02;;;17.60;64.50;;;;;;4826617;29;20126;-75
2022/09/20 13:27:37;;;;;;;2.83;0.40;;;17.60;64.60;;;;;;4825790;29;20359;-78
2022/09/20 13:30:21;;;;;;;3.85;0.60;;;17.60;64.80;;;;;;4810156;29;20526;-79
2022/09/20 13:32:49;;;;;;;4.28;0.82;;;17.60;64.90;;;;;;4808169;29;20127;-80
2022/09/20 13:35:22;;;;;;;2.40;0.52;;;17.60;65.10;;;;;;4807424;29;20050;-77
2022/09/20 13:38:03;;;;;;;5.75;1.00;;;17.60;65.30;;;;;;4791975;29;20093;-78
2022/09/20 13:40:38;;;;;;;8.48;0.95;;;17.60;65.30;;;;;;4809073;29;20091;-77
2022/09/20 13:43:24;;;;;;;5.20;0.50;;;17.60;65.50;;;;;;4826263;29;20478;-79
2022/09/20 13:45:55;;;;;;;6.72;0.60;;;17.60;65.60;;;;;;4826280;29;20058;-78
2022/09/20 13:48:24;;;;;;;4.60;0.50;;;17.60;65.70;;;;;;4825874;29;20374;-79
2022/09/20 13:50:50;;;;;;;2.85;0.40;;;17.60;65.70;;;;;;4808713;29;20059;-78
2022/09/20 13:53:17;;;;;;;3.17;0.50;;;17.60;65.80;;;;;;4822513;29;20443;-77
2022/09/20 13:55:44;;;;;;;3.30;0.40;;;17.70;65.90;;;;;;4823113;29;20047;-77
2022/09/20 13:58:32;;;;;;;4.22;0.45;;;17.60;65.90;;;;;;4808098;29;20093;-78
2022/09/20 14:01:02;;;;;;;4.05;0.68;;;17.60;66.10;;;;;;4821901;29;20062;-79
2022/09/20 14:03:29;;;;;;;2.78;0.50;;;17.60;66.00;;;;;;4825600;29;20130;-79
2022/09/20 14:06:15;;;;;;;4.15;0.73;;;17.70;66.10;;;;;;4809650;29;20058;-80
2022/09/20 14:08:44;;;;;;;7.30;0.68;;;17.70;66.00;;;;;;4819514;29;20046;-79
2022/09/20 14:11:26;;;;;;;8.50;1.20;;;17.70;66.10;;;;;;4826363;29;20458;-78
2022/09/20 14:14:25;;;;;;;12.38;1.00;;;17.70;66.20;;;;;;4808164;29;20088;-79
2022/09/20 14:16:56;;;;;;;9.07;0.70;;;17.70;66.30;;;;;;4799937;29;20055;-76
2022/09/20 14:19:41;;;;;;;10.20;1.20;;;17.70;66.50;;;;;;4776884;29;20047;-79
2022/09/20 14:22:36;;;;;;;11.90;1.10;;;17.70;66.20;;;;;;4810352;29;20047;-83
2022/09/20 14:25:11;;;;;;;10.18;1.35;;;17.80;64.90;;;;;;4821774;29;20138;-80
2022/09/20 14:27:37;;;;;;;6.95;0.75;;;17.80;62.90;;;;;;4822194;29;20429;-81
2022/09/20 14:30:05;;;;;;;7.50;0.50;;;17.70;61.60;;;;;;4822199;29;20038;-83
2022/09/20 14:33:07;;;;;;;5.05;0.88;;;17.70;60.30;;;;;;4800807;29;20057;-83
2022/09/20 14:35:46;;;;;;;7.22;0.65;;;17.70;60.00;;;;;;4810176;29;20165;-81
2022/09/20 14:38:15;;;;;;;9.68;0.73;;;17.70;59.50;;;;;;4829317;29;20046;-79
2022/09/20 14:40:46;;;;;;;7.45;0.65;;;17.70;59.60;;;;;;4798017;29;20361;-79
2022/09/20 14:43:33;;;;;;;11.55;1.77;;;17.70;60.30;;;;;;4814582;29;20042;-78
2022/09/20 14:46:02;;;;;;;6.13;0.50;;;17.70;60.70;;;;;;4825236;29;20415;-78
2022/09/20 14:48:43;;;;;;;5.43;0.57;;;17.70;61.00;;;;;;4811085;29;20050;-79
2022/09/20 14:51:15;;;;;;;9.30;0.80;;;17.70;61.10;;;;;;4810822;29;20411;-76
2022/09/20 14:53:45;;;;;;;5.93;0.75;;;17.60;61.40;;;;;;4828462;29;20458;-77
2022/09/20 14:56:16;;;;;;;6.53;0.55;;;17.60;61.60;;;;;;4828746;29;20053;-75
2022/09/20 14:59:19;;;;;;;3.80;0.45;;;17.60;61.90;;;;;;4829495;29;20108;-76
2022/09/20 15:02:09;;;;;;;10.73;1.13;;;17.60;62.10;;;;;;4824930;29;20050;-76
2022/09/20 15:04:36;;;;;;;7.63;1.38;;;17.60;62.10;;;;;;4810918;29;20050;-80
2022/09/20 15:07:09;;;;;;;14.35;1.27;;;17.70;62.00;;;;;;4810460;29;20493;-80
2022/09/20 15:09:35;;;;;;;7.80;0.80;;;17.70;61.50;;;;;;4794753;29;20474;-80
2022/09/20 15:12:09;;;;;;;6.13;1.10;;;17.70;61.00;;;;;;4815247;29;20038;-79
2022/09/20 15:14:35;;;;;;;6.63;0.70;;;17.70;60.50;;;;;;4812737;29;20054;-79
2022/09/20 15:17:01;;;;;;;6.10;0.70;;;17.70;61.10;;;;;;4828800;29;20134;-78
2022/09/20 15:19:27;;;;;;;8.05;0.55;;;17.70;61.60;;;;;;4828840;29;20064;-80
2022/09/20 15:21:53;;;;;;;6.07;0.47;;;17.70;61.90;;;;;;4823827;29;20185;-80
2022/09/20 15:24:18;;;;;;;10.00;1.00;;;17.70;62.00;;;;;;4810552;29;20055;-80
2022/09/20 15:26:45;;;;;;;4.68;0.57;;;17.70;61.50;;;;;;4809785;29;20058;-80
2022/09/20 15:29:18;;;;;;;7.10;0.80;;;17.70;61.50;;;;;;4825293;29;20336;-80
2022/09/20 15:31:46;;;;;;;8.68;0.75;;;17.70;61.70;;;;;;4813124;29;20047;-78
2022/09/20 15:34:13;;;;;;;16.17;1.35;;;17.70;61.90;;;;;;4827840;29;20055;-79
2022/09/20 15:36:39;;;;;;;7.07;1.08;;;17.70;61.70;;;;;;4827183;29;20058;-76
2022/09/20 15:39:15;;;;;;;6.47;0.60;;;17.70;61.90;;;;;;4828301;29;20388;-77
2022/09/20 15:41:44;;;;;;;5.75;0.93;;;17.70;62.20;;;;;;4810046;29;20057;-77
2022/09/20 15:44:10;;;;;;;6.65;0.68;;;17.70;62.30;;;;;;4809956;29;20039;-78
2022/09/20 15:46:36;;;;;;;4.82;0.60;;;17.70;62.30;;;;;;4809927;29;20054;-79
2022/09/20 15:49:04;;;;;;;4.20;0.50;;;17.70;62.30;;;;;;4810911;29;20047;-77
2022/09/20 15:51:30;;;;;;;6.40;0.68;;;17.80;62.20;;;;;;4809873;29;20063;-78
2022/09/20 15:53:58;;;;;;;5.03;0.88;;;17.80;62.00;;;;;;4827988;29;20060;-78
2022/09/20 15:56:33;;;;;;;0.80;0.40;;;17.80;61.60;;;;;;4827262;29;20066;-80
2022/09/20 15:59:07;;;;;;;6.70;1.00;;;17.80;61.20;;;;;;4826823;29;20374;-78
2022/09/20 16:01:41;;;;;;;9.82;0.93;;;17.80;61.20;;;;;;4825757;29;20038;-79
2022/09/20 16:04:17;;;;;;;4.00;0.95;;;17.80;61.60;;;;;;4812464;29;20122;-77
2022/09/20 16:06:45;;;;;;;3.75;0.40;;;17.80;62.20;;;;;;4827785;29;20497;-76
2022/09/20 16:09:12;;;;;;;4.22;0.70;;;17.80;62.40;;;;;;4811173;29;20111;-79
2022/09/20 16:11:38;;;;;;;6.72;0.85;;;17.80;62.20;;;;;;4823340;29;20046;-75
2022/09/20 16:14:04;;;;;;;11.77;1.25;;;17.80;62.20;;;;;;4809667;29;20043;-77
2022/09/20 16:16:32;;;;;;;7.63;0.88;;;17.80;62.60;;;;;;4809643;29;20062;-75
2022/09/20 16:19:16;;;;;;;7.70;0.50;;;17.80;62.80;;;;;;4809985;29;20047;-75
2022/09/20 16:21:48;;;;;;;11.48;1.08;;;17.80;63.10;;;;;;4812355;29;20355;-75
2022/09/20 16:24:16;;;;;;;14.27;1.00;;;17.80;63.30;;;;;;4826735;29;20566;-75
2022/09/20 16:26:42;;;;;;;5.88;0.68;;;17.80;63.50;;;;;;4827934;29;20348;-76
2022/09/20 16:29:08;;;;;;;4.82;0.60;;;17.80;64.10;;;;;;4827812;29;20055;-75
2022/09/20 16:31:41;;;;;;;8.30;1.15;;;17.70;64.50;;;;;;4825070;29;20486;-79
2022/09/20 16:34:20;;;;;;;12.18;1.08;;;17.80;64.60;;;;;;4809267;29;20422;-75
2022/09/20 16:36:51;;;;;;;15.73;2.10;;;17.80;64.90;;;;;;4810103;29;20050;-76
2022/09/20 16:39:18;;;;;;;19.15;1.73;;;17.80;65.00;;;;;;4823704;29;20054;-73
2022/09/20 16:41:48;;;;;;;18.70;1.77;;;17.80;65.10;;;;;;4812156;29;20470;-75
2022/09/20 16:44:14;;;;;;;19.10;1.60;;;17.70;65.10;;;;;;4827239;29;20050;-78
2022/09/20 16:46:40;;;;;;;20.13;2.17;;;17.70;65.20;;;;;;4827368;29;20050;-76
2022/09/20 16:49:10;;;;;;;20.50;2.17;;;17.80;65.50;;;;;;4827505;29;20050;-76
2022/09/20 16:51:38;;;;;;;13.32;1.67;;;17.80;65.50;;;;;;4825234;29;20363;-75
2022/09/20 16:54:12;;;;;;;17.20;1.67;;;17.80;65.50;;;;;;4807932;29;20120;-76
2022/09/20 16:56:38;;;;;;;;;;;17.80;65.30;;;;;;4809391;29;20117;-77
2022/09/20 16:59:06;;;;;;;2.00;0.30;;;17.80;64.90;;;;;;4822761;29;19935;-76
2022/09/20 17:01:33;;;;;;;5.13;0.35;;;17.80;63.30;;;;;;4824202;29;20485;-80
2022/09/20 17:03:59;;;;;;;10.65;1.70;;;17.80;62.50;;;;;;4826193;29;20492;-78
2022/09/20 17:06:28;;;;;;;14.20;1.90;;;17.70;62.90;;;;;;4810568;29;20066;-77
2022/09/20 17:08:55;;;;;;;8.45;1.00;;;17.70;63.20;;;;;;4826191;29;20091;-78
2022/09/20 17:11:28;;;;;;;7.28;0.88;;;17.70;63.10;;;;;;4810847;29;20038;-79
2022/09/20 17:13:56;;;;;;;5.03;0.77;;;17.70;63.20;;;;;;4808249;29;20050;-79
2022/09/20 17:16:30;;;;;;;16.27;1.13;;;17.70;63.20;;;;;;4792912;29;20059;-80
2022/09/20 17:19:07;;;;;;;5.05;0.93;;;17.80;63.20;;;;;;4822927;29;20362;-80
2022/09/20 17:21:35;;;;;;;7.28;1.08;;;17.80;63.20;;;;;;4823827;29;20079;-80
2022/09/20 17:24:03;;;;;;;5.72;0.55;;;17.80;63.30;;;;;;4810328;29;20061;-80
2022/09/20 17:26:32;;;;;;;4.85;0.93;;;17.80;63.50;;;;;;4826185;29;20073;-80
2022/09/20 17:28:59;;;;;;;5.10;0.70;;;17.80;63.60;;;;;;4810651;29;20042;-80
2022/09/20 17:31:32;;;;;;;6.03;0.77;;;17.90;63.80;;;;;;4810749;29;20188;-80
2022/09/20 17:34:06;;;;;;;12.18;1.65;;;17.90;64.50;;;;;;4810172;29;20038;-80
2022/09/20 17:36:34;;;;;;;;;;;17.90;63.90;;;;;;4825866;29;20111;-80
2022/09/20 17:39:01;;;;;;;3.25;0.45;;;17.90;64.00;;;;;;4810496;29;19947;-79
2022/09/20 17:41:28;;;;;;;4.07;0.50;;;17.90;64.20;;;;;;4810427;29;20058;-79
2022/09/20 17:43:57;;;;;;;4.70;0.80;;;17.90;64.20;;;;;;4792188;29;20086;-80
2022/09/20 17:46:25;;;;;;;5.30;0.73;;;17.90;64.20;;;;;;4777382;29;20046;-79
2022/09/20 17:48:59;;;;;;;5.88;0.55;;;17.90;64.20;;;;;;4792439;29;20039;-79
2022/09/20 17:51:33;;;;;;;3.97;0.45;;;17.90;64.30;;;;;;4792071;29;20082;-79
2022/09/20 17:53:59;;;;;;;3.80;0.30;;;17.90;64.20;;;;;;4810113;29;20130;-80
2022/09/20 17:56:29;;;;;;;4.20;0.40;;;17.90;64.30;;;;;;4826577;29;20148;-79
2022/09/20 17:59:01;;;;;;;6.82;0.90;;;17.90;64.30;;;;;;4824123;29;20035;-79
2022/09/20 18:01:28;;;;;;;5.85;0.40;;;17.90;64.10;;;;;;4816761;29;20042;-81
2022/09/20 18:03:55;;;;;;;4.40;0.75;;;17.90;64.20;;;;;;4809723;29;20050;-78
2022/09/20 18:06:25;;;;;;;8.25;0.80;;;17.90;64.40;;;;;;4811541;29;20074;-80
2022/09/20 18:09:02;;;;;;;6.28;0.50;;;17.90;64.70;;;;;;4792048;29;20043;-79
2022/09/20 18:11:34;;;;;;;5.53;0.90;;;17.90;64.80;;;;;;4807044;29;20060;-79
2022/09/20 18:14:01;;;;;;;7.43;0.75;;;17.90;64.90;;;;;;4791571;29;20123;-79
2022/09/20 18:16:30;;;;;;;6.00;0.70;;;18.00;64.50;;;;;;4801612;29;20156;-78
2022/09/20 18:18:58;;;;;;;4.57;0.75;;;17.90;62.60;;;;;;4795069;29;20407;-79
2022/09/20 18:21:26;;;;;;;3.75;0.52;;;17.80;61.50;;;;;;4788905;29;20050;-80
2022/09/20 18:23:52;;;;;;;6.72;0.68;;;17.60;61.50;;;;;;4790416;29;20130;-78
2022/09/20 18:26:20;;;;;;;3.00;0.57;;;17.50;61.40;;;;;;4794365;29;20123;-80
2022/09/20 18:28:49;;;;;;;4.85;0.52;;;17.30;62.00;;;;;;4789793;29;20054;-79
2022/09/20 18:31:17;;;;;;;4.82;0.63;;;17.20;62.60;;;;;;4805223;29;20049;-79
2022/09/20 18:33:54;;;;;;;3.63;0.80;;;17.20;63.00;;;;;;4809471;29;20369;-80
2022/09/20 18:36:20;;;;;;;3.67;0.82;;;17.30;63.50;;;;;;4825509;29;20268;-77
2022/09/20 18:38:54;;;;;;;3.83;0.90;;;17.30;64.10;;;;;;4808964;29;20418;-79
2022/09/20 18:41:30;;;;;;;5.10;0.82;;;17.40;65.00;;;;;;4808464;29;20046;-79
2022/09/20 18:43:57;;;;;;;2.42;0.30;;;17.40;65.70;;;;;;4807761;29;20466;-76
2022/09/20 18:46:36;;;;;;;9.27;0.50;;;17.40;65.80;;;;;;4809194;29;20458;-80
2022/09/20 18:49:09;;;;;;;2.92;0.65;;;17.50;65.90;;;;;;4794600;29;20107;-80
2022/09/20 18:52:01;;;;;;;;;;;;;;;;;;;;;
2022/09/20 18:55:05;;;;;;;2.40;0.40;;;17.60;67.10;;;;;;4825296;29;20045;-80
2022/09/20 18:57:37;;;;;;;2.97;0.70;;;17.60;67.80;;;;;;4810841;29;20050;-78
2022/09/20 19:00:03;;;;;;;2.15;0.40;;;17.60;66.70;;;;;;4794557;29;20057;-77
2022/09/20 19:02:54;;;;;;;6.20;0.70;;;17.60;67.10;;;;;;4809848;29;20539;-79
2022/09/20 19:06:06;;;;;;;5.30;1.00;;;17.60;68.40;;;;;;4809601;29;20061;-78
2022/09/20 19:08:51;;;;;;;5.13;0.85;;;17.70;68.80;;;;;;4736999;30;20048;-78
2022/09/20 19:11:54;;;;;;;4.70;0.55;;;17.70;68.60;;;;;;4791396;29;20046;-79
2022/09/20 19:22:17;;;;;;;3.45;0.52;;;17.70;68.60;;;;;;4803573;29;20474;-80